Skamania, Washington
Current Conditions -  °F | °C
As of 3:59 PM on Saturday 25 Oct 2014 (Local Time) from K4S2 Reporting Station
Moderate Rain Moderate Rain  
Wind Chill: 55°   Ceiling: 6000
Heat Index: 55°   Visibility: 10mi
Dew Point: 50°   Wind: 0mph
Humidity: 82%   Direction: NA
Pressure: 29.49"   Gusts: NA
Location:  46.0755°N, 121.895°W
Report Text: K4S2 252259Z AUTO 00000KT 10SM RA SCT022 BKN060 OVC080 13/10 A2949 RMK AO2 SLP000 T01300100
Loading
Personal Weather Stations






























Interactive Weather Map
Tropical Storm Tracking
New forecast layout! Learn more

10-Day Weather Forecast

Advertisements
Track Severe Weather on mobile